Time;durP1;ratioP1;P1;durP2;ratioP2;P2;SDS_P1;SDS_P2;PMS_P1;PMS_P2;Temp;Humidity;BMP_temperature;BMP_pressure;BME280_temperature;BME280_humidity;BME280_pressure;Samples;Min_cycle;Max_cycle;Signal;HPM_P1;HPM_P2
2022/05/30 00:00:22;;;;;;;7.80;7.18;;;;;;;;;;5006393;28;20030;-68
2022/05/30 00:02:48;;;;;;;9.52;7.75;;;;;;;;;;5000035;28;20029;-67
2022/05/30 00:05:15;;;;;;;11.18;7.50;;;;;;;;;;5008476;28;20038;-67
2022/05/30 00:07:41;;;;;;;7.78;7.00;;;;;;;;;;5010106;28;20444;-69
2022/05/30 00:10:09;;;;;;;8.13;7.32;;;;;;;;;;4999961;28;20129;-68
2022/05/30 00:12:36;;;;;;;8.55;7.65;;;;;;;;;;5004579;28;20546;-67
2022/05/30 00:15:03;;;;;;;7.97;7.18;;;;;;;;;;5009634;28;20497;-67
2022/05/30 00:17:30;;;;;;;10.32;7.93;;;;;;;;;;5006074;28;20515;-67
2022/05/30 00:19:55;;;;;;;10.63;7.93;;;;;;;;;;5001635;28;20034;-68
2022/05/30 00:22:21;;;;;;;8.43;7.57;;;;;;;;;;5008014;28;20061;-67
2022/05/30 00:24:49;;;;;;;9.52;7.50;;;;;;;;;;4997254;28;20037;-67
2022/05/30 00:27:15;;;;;;;8.18;7.32;;;;;;;;;;5001673;28;20042;-68
2022/05/30 00:29:41;;;;;;;8.60;7.70;;;;;;;;;;5001885;28;20041;-67
2022/05/30 00:32:08;;;;;;;7.78;7.07;;;;;;;;;;5024849;28;20084;-68
2022/05/30 00:34:34;;;;;;;8.77;7.57;;;;;;;;;;5006235;28;20056;-68
2022/05/30 00:37:00;;;;;;;8.20;7.47;;;;;;;;;;5001817;28;20069;-67
2022/05/30 00:39:26;;;;;;;8.48;7.68;;;;;;;;;;5007950;28;20119;-67
2022/05/30 00:41:52;;;;;;;11.40;8.50;;;;;;;;;;5008218;28;20060;-68
2022/05/30 00:44:18;;;;;;;10.18;7.63;;;;;;;;;;5001192;28;20117;-68
2022/05/30 00:46:43;;;;;;;9.40;7.95;;;;;;;;;;5006540;28;20056;-67
2022/05/30 00:49:12;;;;;;;8.23;7.53;;;;;;;;;;5009535;28;20030;-68
2022/05/30 00:51:41;;;;;;;10.23;8.05;;;;;;;;;;5005588;28;20116;-67
2022/05/30 00:54:10;;;;;;;13.98;9.75;;;;;;;;;;5009644;28;20057;-68
2022/05/30 00:56:40;;;;;;;11.65;8.70;;;;;;;;;;4996132;28;20057;-67
2022/05/30 00:59:06;;;;;;;12.38;9.52;;;;;;;;;;5008002;28;20381;-67
2022/05/30 01:01:33;;;;;;;9.32;8.00;;;;;;;;;;4999185;28;20025;-68
2022/05/30 01:06:47;;;;;;;8.52;7.72;;;;;;;;;;5008185;28;20063;-67
2022/05/30 01:09:35;;;;;;;8.75;7.55;;;;;;;;;;5007155;28;20076;-67
2022/05/30 01:12:07;;;;;;;11.03;7.63;;;;;;;;;;4996284;28;20033;-67
2022/05/30 01:14:37;;;;;;;10.88;7.80;;;;;;;;;;5002107;28;20049;-67
2022/05/30 01:17:06;;;;;;;8.25;7.47;;;;;;;;;;5007778;28;20037;-68
2022/05/30 01:19:56;;;;;;;8.75;7.38;;;;;;;;;;5001293;28;20034;-68
2022/05/30 01:22:32;;;;;;;8.50;7.07;;;;;;;;;;5005144;28;20029;-68
2022/05/30 01:25:26;;;;;;;7.95;7.28;;;;;;;;;;4996963;28;20050;-68
2022/05/30 01:28:22;;;;;;;8.48;7.60;;;;;;;;;;5003915;28;20039;-68
2022/05/30 01:30:49;;;;;;;9.75;7.60;;;;;;;;;;5022681;28;20038;-68
2022/05/30 01:33:16;;;;;;;9.57;8.20;;;;;;;;;;5006874;28;20037;-67
2022/05/30 01:35:42;;;;;;;9.98;8.45;;;;;;;;;;5008621;28;20451;-69
2022/05/30 01:38:13;;;;;;;10.70;7.95;;;;;;;;;;5002072;28;20034;-68
2022/05/30 01:40:39;;;;;;;9.55;7.43;;;;;;;;;;5004726;28;20049;-69
2022/05/30 01:43:05;;;;;;;9.45;8.52;;;;;;;;;;5006498;28;20037;-68
2022/05/30 01:45:33;;;;;;;8.85;7.90;;;;;;;;;;5005046;28;20037;-68
2022/05/30 01:47:59;;;;;;;8.93;7.90;;;;;;;;;;4998312;28;20048;-68
2022/05/30 01:50:27;;;;;;;10.50;8.52;;;;;;;;;;5006837;28;20401;-68
2022/05/30 01:52:53;;;;;;;8.80;7.90;;;;;;;;;;5006005;28;20038;-68
2022/05/30 01:55:33;;;;;;;8.20;7.45;;;;;;;;;;4996143;28;20045;-67
2022/05/30 01:58:04;;;;;;;7.72;7.10;;;;;;;;;;5008892;28;20042;-69
2022/05/30 02:00:31;;;;;;;8.60;7.75;;;;;;;;;;5002373;28;20029;-68
2022/05/30 02:02:57;;;;;;;7.95;7.25;;;;;;;;;;5019169;28;20034;-67
2022/05/30 02:05:23;;;;;;;8.02;7.32;;;;;;;;;;5007499;28;20038;-68
2022/05/30 02:07:49;;;;;;;8.20;7.38;;;;;;;;;;4999699;28;20065;-68
2022/05/30 02:10:19;;;;;;;8.60;7.88;;;;;;;;;;5007343;28;20059;-68
2022/05/30 02:12:46;;;;;;;8.07;7.28;;;;;;;;;;5001923;28;20117;-67
2022/05/30 02:15:18;;;;;;;8.10;7.38;;;;;;;;;;4990572;28;20105;-68
2022/05/30 02:17:46;;;;;;;8.65;7.80;;;;;;;;;;5000792;28;20033;-68
2022/05/30 02:20:12;;;;;;;9.38;8.48;;;;;;;;;;5001501;28;20037;-68
2022/05/30 02:22:38;;;;;;;9.30;8.40;;;;;;;;;;5005575;28;20473;-68
2022/05/30 02:25:05;;;;;;;8.95;7.93;;;;;;;;;;4995118;28;20045;-68
2022/05/30 02:27:31;;;;;;;9.73;8.73;;;;;;;;;;4997805;28;20025;-68
2022/05/30 02:29:58;;;;;;;9.52;7.82;;;;;;;;;;5019501;28;20030;-68
2022/05/30 02:32:25;;;;;;;12.35;8.30;;;;;;;;;;5001193;28;20034;-68
2022/05/30 02:37:36;;;;;;;10.10;7.95;;;;;;;;;;4992817;28;20429;-69
2022/05/30 02:40:19;;;;;;;10.27;8.30;;;;;;;;;;5005156;28;20045;-68
2022/05/30 02:43:05;;;;;;;8.32;7.53;;;;;;;;;;4974780;28;20045;-67
2022/05/30 02:45:37;;;;;;;8.52;7.68;;;;;;;;;;5014545;28;20048;-68
2022/05/30 02:48:03;;;;;;;8.30;7.57;;;;;;;;;;5010580;28;20049;-67
2022/05/30 02:50:28;;;;;;;8.77;7.97;;;;;;;;;;5005691;28;20030;-68
2022/05/30 02:52:55;;;;;;;8.85;8.05;;;;;;;;;;5004333;28;20389;-68
2022/05/30 02:55:35;;;;;;;10.57;8.13;;;;;;;;;;5008850;28;20038;-68
2022/05/30 02:58:01;;;;;;;9.18;8.27;;;;;;;;;;5010387;28;20385;-68
2022/05/30 03:00:27;;;;;;;8.68;7.93;;;;;;;;;;5010259;28;20080;-67
2022/05/30 03:02:56;;;;;;;9.85;8.40;;;;;;;;;;5003681;28;20052;-69
2022/05/30 03:05:22;;;;;;;9.35;8.45;;;;;;;;;;4997843;28;20397;-69
2022/05/30 03:07:48;;;;;;;10.50;8.35;;;;;;;;;;5010921;28;20030;-68
2022/05/30 03:10:37;;;;;;;9.35;8.48;;;;;;;;;;5009407;28;20041;-68
2022/05/30 03:13:05;;;;;;;9.55;8.65;;;;;;;;;;4997294;28;20034;-68
2022/05/30 03:15:32;;;;;;;10.20;8.40;;;;;;;;;;4997567;28;20057;-69
2022/05/30 03:17:59;;;;;;;10.02;8.98;;;;;;;;;;5006273;28;20029;-69
2022/05/30 03:20:25;;;;;;;10.13;8.43;;;;;;;;;;5010845;28;20037;-68
2022/05/30 03:22:51;;;;;;;8.98;8.13;;;;;;;;;;5004326;28;20034;-68
2022/05/30 03:25:19;;;;;;;9.32;8.35;;;;;;;;;;5000744;28;20042;-69
2022/05/30 03:27:55;;;;;;;8.82;7.90;;;;;;;;;;5006627;28;20038;-68
2022/05/30 03:30:22;;;;;;;8.57;7.78;;;;;;;;;;5002748;28;20133;-69
2022/05/30 03:32:49;;;;;;;8.85;8.05;;;;;;;;;;4999670;28;20088;-69
2022/05/30 03:35:16;;;;;;;10.02;9.02;;;;;;;;;;5020996;28;20045;-68
2022/05/30 03:37:49;;;;;;;10.10;8.93;;;;;;;;;;5009248;28;20519;-68
2022/05/30 03:40:36;;;;;;;9.30;8.45;;;;;;;;;;5006844;28;20532;-69
2022/05/30 03:43:23;;;;;;;;;;;;;;;;;;4997208;28;20129;-69
2022/05/30 03:45:48;;;;;;;8.57;7.70;;;;;;;;;;5008849;28;19917;-68
2022/05/30 03:48:15;;;;;;;10.82;8.20;;;;;;;;;;5022551;28;20030;-69
2022/05/30 03:50:42;;;;;;;10.50;8.82;;;;;;;;;;4999888;28;20030;-66
2022/05/30 03:53:09;;;;;;;9.07;7.82;;;;;;;;;;5006212;28;20058;-68
2022/05/30 03:55:42;;;;;;;10.88;7.72;;;;;;;;;;4999389;28;20084;-68
2022/05/30 03:58:09;;;;;;;8.82;7.90;;;;;;;;;;5008778;28;20041;-68
2022/05/30 04:00:36;;;;;;;9.63;8.07;;;;;;;;;;5002592;28;20041;-68
2022/05/30 04:03:04;;;;;;;9.40;7.45;;;;;;;;;;5000570;28;20053;-68
2022/05/30 04:05:30;;;;;;;9.85;8.43;;;;;;;;;;5008710;28;20409;-68
2022/05/30 04:07:57;;;;;;;9.50;7.68;;;;;;;;;;5008525;28;20389;-68
2022/05/30 04:10:41;;;;;;;7.90;7.05;;;;;;;;;;4998737;28;20038;-68
2022/05/30 04:13:26;;;;;;;8.80;7.90;;;;;;;;;;5006811;28;20109;-67
2022/05/30 04:16:18;;;;;;;8.55;7.75;;;;;;;;;;5008398;28;20076;-66
2022/05/30 04:18:44;;;;;;;11.45;8.27;;;;;;;;;;5019872;28;20061;-69
2022/05/30 04:21:11;;;;;;;8.38;7.63;;;;;;;;;;5008687;28;20037;-69
2022/05/30 04:23:42;;;;;;;8.87;8.07;;;;;;;;;;5000188;28;20433;-68
2022/05/30 04:26:12;;;;;;;8.63;7.85;;;;;;;;;;5015940;28;20044;-68
2022/05/30 04:28:41;;;;;;;8.70;7.82;;;;;;;;;;5008073;28;20481;-69
2022/05/30 04:31:27;;;;;;;8.75;7.50;;;;;;;;;;5005357;28;20054;-69
2022/05/30 04:33:53;;;;;;;8.50;7.80;;;;;;;;;;4999253;28;20141;-69
2022/05/30 04:36:19;;;;;;;7.82;7.07;;;;;;;;;;4994893;28;20037;-69
2022/05/30 04:38:50;;;;;;;9.50;7.22;;;;;;;;;;5001675;28;20045;-68
2022/05/30 04:41:34;;;;;;;7.57;6.97;;;;;;;;;;5006246;28;20099;-69
2022/05/30 04:44:32;;;;;;;7.85;7.05;;;;;;;;;;4967942;28;20056;-68
2022/05/30 04:47:17;;;;;;;7.32;6.72;;;;;;;;;;5000751;28;20091;-67
2022/05/30 04:49:48;;;;;;;7.30;6.60;;;;;;;;;;5000684;28;20121;-68
2022/05/30 04:52:15;;;;;;;7.85;7.10;;;;;;;;;;4999662;28;20041;-69
2022/05/30 04:54:41;;;;;;;8.27;7.47;;;;;;;;;;5002891;28;20029;-68
2022/05/30 04:57:30;;;;;;;8.10;7.38;;;;;;;;;;5015586;28;20044;-68
2022/05/30 05:00:21;;;;;;;8.73;8.02;;;;;;;;;;4999540;28;20034;-68
2022/05/30 05:02:47;;;;;;;8.75;8.02;;;;;;;;;;5002126;28;20025;-68
2022/05/30 05:05:13;;;;;;;8.98;7.85;;;;;;;;;;5007299;28;20042;-68
2022/05/30 05:08:04;;;;;;;10.10;7.70;;;;;;;;;;5003136;28;20042;-68
2022/05/30 05:10:59;;;;;;;8.50;7.30;;;;;;;;;;5000260;28;20042;-67
2022/05/30 05:13:43;;;;;;;7.53;6.88;;;;;;;;;;5003174;28;20049;-68
2022/05/30 05:16:35;;;;;;;7.30;6.78;;;;;;;;;;5006486;28;20125;-68
2022/05/30 05:19:00;;;;;;;8.43;7.00;;;;;;;;;;4995780;28;20026;-68
2022/05/30 05:21:31;;;;;;;6.95;6.40;;;;;;;;;;5024027;28;20040;-68
2022/05/30 05:23:57;;;;;;;7.20;6.70;;;;;;;;;;5001126;28;20116;-67
2022/05/30 05:26:34;;;;;;;7.68;6.72;;;;;;;;;;4996530;28;20044;-67
2022/05/30 05:29:20;;;;;;;7.47;6.63;;;;;;;;;;4998429;28;20088;-68
2022/05/30 05:31:46;;;;;;;8.15;6.43;;;;;;;;;;5003213;28;20029;-68
2022/05/30 05:34:14;;;;;;;7.45;6.60;;;;;;;;;;5000241;28;20042;-68
2022/05/30 05:36:44;;;;;;;7.00;6.40;;;;;;;;;;5017423;28;20025;-68
2022/05/30 05:39:11;;;;;;;7.20;6.70;;;;;;;;;;5007713;28;20040;-68
2022/05/30 05:41:43;;;;;;;7.50;6.75;;;;;;;;;;5004662;28;20061;-67
2022/05/30 05:44:14;;;;;;;6.63;6.13;;;;;;;;;;5023038;28;20475;-68
2022/05/30 05:46:40;;;;;;;7.38;6.43;;;;;;;;;;5006573;28;20045;-68
2022/05/30 05:49:09;;;;;;;7.00;6.50;;;;;;;;;;5003702;28;20038;-68
2022/05/30 05:51:35;;;;;;;7.40;6.70;;;;;;;;;;5000916;28;20374;-67
2022/05/30 05:54:05;;;;;;;7.57;6.88;;;;;;;;;;5005961;28;20799;-68
2022/05/30 05:56:32;;;;;;;7.45;6.80;;;;;;;;;;4990481;28;20049;-68
2022/05/30 05:59:01;;;;;;;8.63;7.30;;;;;;;;;;5000699;28;20034;-68
2022/05/30 06:01:32;;;;;;;7.57;6.97;;;;;;;;;;4998828;28;20037;-68
2022/05/30 06:04:00;;;;;;;9.25;7.03;;;;;;;;;;5006361;28;20026;-68
2022/05/30 06:06:45;;;;;;;7.20;6.60;;;;;;;;;;5003728;28;20046;-68
2022/05/30 06:09:14;;;;;;;7.93;7.13;;;;;;;;;;5004384;28;20038;-68
2022/05/30 06:11:57;;;;;;;7.20;6.50;;;;;;;;;;5006708;28;20500;-68
2022/05/30 06:14:23;;;;;;;7.57;6.47;;;;;;;;;;5005351;28;20042;-67
2022/05/30 06:16:50;;;;;;;6.90;6.20;;;;;;;;;;5000171;28;20104;-68
2022/05/30 06:19:19;;;;;;;;;;;;;;;;;;5009822;28;20038;-69
2022/05/30 06:21:47;;;;;;;7.03;6.32;;;;;;;;;;5010822;28;19913;-68
2022/05/30 06:24:15;;;;;;;7.10;6.50;;;;;;;;;;5004652;28;20088;-68
2022/05/30 06:26:44;;;;;;;6.70;6.20;;;;;;;;;;5004006;28;20026;-68
2022/05/30 06:29:30;;;;;;;6.95;6.20;;;;;;;;;;4974928;28;20500;-68
2022/05/30 06:31:57;;;;;;;6.80;6.30;;;;;;;;;;5010741;28;20593;-68
2022/05/30 06:34:24;;;;;;;6.82;6.30;;;;;;;;;;5020545;28;20044;-68
2022/05/30 06:36:51;;;;;;;8.10;6.53;;;;;;;;;;5002636;28;20040;-69
2022/05/30 06:39:17;;;;;;;7.45;6.70;;;;;;;;;;5009561;28;20037;-68
2022/05/30 06:42:14;;;;;;;7.15;6.40;;;;;;;;;;5002114;28;20552;-69
2022/05/30 06:44:58;;;;;;;7.55;6.35;;;;;;;;;;5006460;28;20076;-68
2022/05/30 06:47:42;;;;;;;7.13;6.30;;;;;;;;;;5008273;28;20168;-68
2022/05/30 06:50:31;;;;;;;6.72;6.20;;;;;;;;;;4997551;28;20053;-69
2022/05/30 06:52:56;;;;;;;6.82;6.10;;;;;;;;;;4997960;28;20033;-69
2022/05/30 06:55:22;;;;;;;7.75;6.35;;;;;;;;;;5006299;28;20073;-69
2022/05/30 07:00:33;;;;;;;6.80;6.20;;;;;;;;;;5004076;28;20030;-69
2022/05/30 07:03:17;;;;;;;6.47;5.95;;;;;;;;;;5008138;28;20517;-69
2022/05/30 07:06:07;;;;;;;6.65;5.88;;;;;;;;;;5011477;28;20077;-71
2022/05/30 07:08:51;;;;;;;7.47;6.15;;;;;;;;;;5005676;28;20569;-68
2022/05/30 07:11:38;;;;;;;6.43;5.82;;;;;;;;;;5003746;28;20048;-68
2022/05/30 07:14:10;;;;;;;6.80;6.20;;;;;;;;;;5009842;28;20583;-67
2022/05/30 07:16:37;;;;;;;6.82;6.22;;;;;;;;;;5009587;28;20153;-68
2022/05/30 07:19:03;;;;;;;6.25;5.68;;;;;;;;;;5003296;28;20125;-68
2022/05/30 07:21:33;;;;;;;6.68;6.00;;;;;;;;;;5004176;28;20034;-69
2022/05/30 07:24:17;;;;;;;6.50;6.00;;;;;;;;;;5000044;28;20057;-68
2022/05/30 07:27:01;;;;;;;9.82;6.22;;;;;;;;;;4996654;28;20034;-68
2022/05/30 07:29:50;;;;;;;6.88;6.38;;;;;;;;;;5008522;22;20057;-63
2022/05/30 07:32:39;;;;;;;7.38;6.68;;;;;;;;;;5006361;28;20427;-62
2022/05/30 07:35:23;;;;;;;6.50;5.93;;;;;;;;;;5009947;28;20034;-63
2022/05/30 07:38:21;;;;;;;6.97;6.20;;;;;;;;;;5007992;28;20038;-63
2022/05/30 07:41:06;;;;;;;6.75;6.00;;;;;;;;;;5011083;28;20048;-63
2022/05/30 07:43:53;;;;;;;6.38;5.78;;;;;;;;;;5008721;28;20132;-63
2022/05/30 07:46:29;;;;;;;7.78;6.22;;;;;;;;;;5005647;28;20026;-63
2022/05/30 07:49:07;;;;;;;6.85;6.07;;;;;;;;;;5017506;28;20042;-63
2022/05/30 07:51:53;;;;;;;6.28;5.68;;;;;;;;;;5003885;28;20041;-63
2022/05/30 07:54:34;;;;;;;6.63;6.13;;;;;;;;;;5021531;28;20113;-63
2022/05/30 07:57:06;;;;;;;7.38;5.40;;;;;;;;;;5005119;28;20041;-63
2022/05/30 07:59:35;;;;;;;6.30;5.63;;;;;;;;;;5004311;28;20064;-63
2022/05/30 08:02:01;;;;;;;7.65;5.85;;;;;;;;;;5004489;28;20081;-63
2022/05/30 08:04:28;;;;;;;6.20;5.60;;;;;;;;;;5009293;28;20508;-63
2022/05/30 08:07:12;;;;;;;7.63;6.03;;;;;;;;;;5007930;28;20491;-63
2022/05/30 08:09:57;;;;;;;6.72;6.00;;;;;;;;;;5000065;28;20127;-63
2022/05/30 08:12:26;;;;;;;8.02;5.60;;;;;;;;;;5007193;28;20034;-63
2022/05/30 08:14:53;;;;;;;6.50;5.90;;;;;;;;;;5010519;28;20508;-63
2022/05/30 08:17:20;;;;;;;6.32;5.82;;;;;;;;;;5017367;28;20045;-63
2022/05/30 08:19:46;;;;;;;5.72;5.32;;;;;;;;;;5005865;28;20041;-63
2022/05/30 08:22:12;;;;;;;5.40;5.00;;;;;;;;;;5009231;28;20038;-62
2022/05/30 08:24:41;;;;;;;5.80;5.18;;;;;;;;;;5007196;28;20049;-63
2022/05/30 08:27:12;;;;;;;5.55;5.05;;;;;;;;;;4998688;28;20034;-63
2022/05/30 08:29:45;;;;;;;5.78;5.25;;;;;;;;;;5009346;28;20044;-62
2022/05/30 08:32:12;;;;;;;6.18;5.35;;;;;;;;;;5007567;28;20033;-63
2022/05/30 08:35:09;;;;;;;5.85;5.22;;;;;;;;;;5000067;28;20030;-62
2022/05/30 08:37:37;;;;;;;6.35;5.75;;;;;;;;;;5004630;28;20034;-63
2022/05/30 08:42:54;;;;;;;8.52;5.90;;;;;;;;;;5000383;28;20032;-63
2022/05/30 08:45:45;;;;;;;8.40;5.40;;;;;;;;;;5008911;28;20496;-62
2022/05/30 08:49:02;;;;;;;5.30;4.88;;;;;;;;;;5008824;28;20045;-63
2022/05/30 08:51:46;;;;;;;5.90;5.35;;;;;;;;;;5002056;28;20045;-63
2022/05/30 08:54:34;;;;;;;5.63;5.13;;;;;;;;;;5003057;28;20030;-63
2022/05/30 08:57:31;;;;;;;7.82;5.30;;;;;;;;;;5005828;28;20045;-62
2022/05/30 09:00:13;;;;;;;6.45;5.93;;;;;;;;;;4995576;28;20485;-63
2022/05/30 09:03:12;;;;;;;5.70;5.20;;;;;;;;;;5003774;28;20060;-62
2022/05/30 09:05:45;;;;;;;5.35;4.80;;;;;;;;;;5020229;28;20041;-61
2022/05/30 09:08:25;;;;;;;7.05;5.40;;;;;;;;;;5007128;28;20048;-62
2022/05/30 09:11:27;;;;;;;5.95;5.35;;;;;;;;;;5004432;28;20164;-61
2022/05/30 09:13:57;;;;;;;6.22;5.72;;;;;;;;;;5008001;28;20081;-62
2022/05/30 09:16:37;;;;;;;5.70;5.30;;;;;;;;;;5003475;28;20030;-62
2022/05/30 09:19:11;;;;;;;7.00;6.10;;;;;;;;;;5000266;28;20041;-62
2022/05/30 09:21:38;;;;;;;6.68;5.50;;;;;;;;;;5007964;28;20042;-62
2022/05/30 09:24:04;;;;;;;6.50;5.90;;;;;;;;;;4989336;28;20069;-62
2022/05/30 09:26:35;;;;;;;6.28;5.75;;;;;;;;;;5005901;28;20041;-62
2022/05/30 09:29:22;;;;;;;5.30;4.95;;;;;;;;;;5007754;28;20117;-62
2022/05/30 09:32:28;;;;;;;6.10;5.47;;;;;;;;;;5021422;28;20408;-63
2022/05/30 09:35:32;;;;;;;5.70;5.30;;;;;;;;;;4993623;28;20041;-62
2022/05/30 09:38:22;;;;;;;6.03;4.78;;;;;;;;;;5007482;28;20030;-62
2022/05/30 09:41:14;;;;;;;5.80;5.20;;;;;;;;;;5009144;28;20057;-62
2022/05/30 09:44:12;;;;;;;5.07;4.78;;;;;;;;;;4995241;28;20091;-63
2022/05/30 09:46:52;;;;;;;6.50;4.78;;;;;;;;;;4999420;28;20400;-63
2022/05/30 09:49:46;;;;;;;5.00;4.50;;;;;;;;;;5007288;28;20041;-63
2022/05/30 09:52:24;;;;;;;5.43;5.00;;;;;;;;;;5021895;28;20038;-62
2022/05/30 09:54:50;;;;;;;7.05;5.18;;;;;;;;;;5003593;28;20044;-62
2022/05/30 09:57:38;;;;;;;11.48;6.20;;;;;;;;;;5005915;28;20038;-62
2022/05/30 10:00:16;;;;;;;5.88;5.28;;;;;;;;;;5007732;28;20034;-62
2022/05/30 10:02:45;;;;;;;6.22;5.18;;;;;;;;;;5006323;28;20038;-62
2022/05/30 10:05:29;;;;;;;6.72;5.30;;;;;;;;;;5003169;28;20073;-62
2022/05/30 10:07:58;;;;;;;5.63;5.22;;;;;;;;;;4990761;28;20085;-62
2022/05/30 10:10:52;;;;;;;5.88;5.38;;;;;;;;;;4999267;28;20107;-63
2022/05/30 10:13:35;;;;;;;5.40;4.95;;;;;;;;;;5006773;28;20041;-63
2022/05/30 10:16:31;;;;;;;5.63;5.25;;;;;;;;;;5007336;28;20050;-62
2022/05/30 10:19:00;;;;;;;5.53;5.00;;;;;;;;;;5001283;28;20066;-63
2022/05/30 10:21:25;;;;;;;45.90;14.85;;;;;;;;;;5002926;28;20045;-63
2022/05/30 10:28:14;;;;;;;5.28;4.78;;;;;;;;;;4991682;28;20139;-63
2022/05/30 10:31:14;;;;;;;5.80;5.00;;;;;;;;;;4993148;28;20046;-62
2022/05/30 10:34:06;;;;;;;5.43;5.05;;;;;;;;;;5006336;28;20065;-63
2022/05/30 10:36:54;;;;;;;5.70;5.20;;;;;;;;;;4996557;28;20038;-62
2022/05/30 10:39:51;;;;;;;5.95;5.45;;;;;;;;;;5000164;28;20113;-62
2022/05/30 10:42:17;;;;;;;6.10;5.60;;;;;;;;;;4996252;28;20109;-63
2022/05/30 10:44:49;;;;;;;5.43;5.00;;;;;;;;;;5007233;28;20196;-62
2022/05/30 10:47:26;;;;;;;8.18;6.25;;;;;;;;;;5000380;28;20071;-63
2022/05/30 10:50:03;;;;;;;6.63;5.93;;;;;;;;;;4989446;28;20046;-63
2022/05/30 10:52:39;;;;;;;5.47;5.07;;;;;;;;;;5008185;28;20109;-64
2022/05/30 10:55:14;;;;;;;5.30;4.80;;;;;;;;;;5003329;28;20112;-63
2022/05/30 10:58:02;;;;;;;5.40;5.00;;;;;;;;;;4993749;28;20382;-63
2022/05/30 11:00:50;;;;;;;5.35;4.85;;;;;;;;;;5005205;28;20080;-63
2022/05/30 11:03:39;;;;;;;5.07;4.57;;;;;;;;;;5008775;28;20045;-63
2022/05/30 11:06:18;;;;;;;4.75;4.45;;;;;;;;;;5001611;28;20042;-63
2022/05/30 11:09:06;;;;;;;5.78;5.20;;;;;;;;;;5007386;28;20504;-64
2022/05/30 11:11:47;;;;;;;4.95;4.50;;;;;;;;;;5010754;28;20042;-63
2022/05/30 11:14:35;;;;;;;4.53;4.22;;;;;;;;;;5007907;28;20069;-63
2022/05/30 11:17:36;;;;;;;4.82;4.53;;;;;;;;;;5010718;28;20042;-64
2022/05/30 11:20:09;;;;;;;4.80;4.50;;;;;;;;;;5010464;28;20038;-63
2022/05/30 11:22:47;;;;;;;5.13;4.75;;;;;;;;;;5001521;28;20042;-63
2022/05/30 11:25:23;;;;;;;5.20;4.70;;;;;;;;;;5002498;28;20030;-63
2022/05/30 11:28:39;;;;;;;5.60;5.10;;;;;;;;;;5005033;28;20044;-63
2022/05/30 11:31:18;;;;;;;4.68;4.28;;;;;;;;;;4964193;28;20045;-63
2022/05/30 11:33:59;;;;;;;5.35;4.95;;;;;;;;;;5007417;28;20639;-63
2022/05/30 11:36:46;;;;;;;6.00;5.45;;;;;;;;;;5010975;28;20125;-64
2022/05/30 11:39:34;;;;;;;5.63;5.22;;;;;;;;;;5007976;28;20436;-64
2022/05/30 11:42:24;;;;;;;5.30;4.80;;;;;;;;;;5004294;28;20039;-64
2022/05/30 11:44:55;;;;;;;6.03;5.43;;;;;;;;;;4996514;28;20557;-63
2022/05/30 11:47:33;;;;;;;7.40;5.47;;;;;;;;;;5001109;28;20038;-63
2022/05/30 11:50:07;;;;;;;5.32;4.90;;;;;;;;;;5002102;28;20041;-63
2022/05/30 11:53:10;;;;;;;5.55;5.15;;;;;;;;;;5009460;28;20038;-63
2022/05/30 11:55:56;;;;;;;5.43;5.03;;;;;;;;;;5008896;28;20455;-63
2022/05/30 11:58:41;;;;;;;5.10;4.55;;;;;;;;;;4996857;28;20038;-63
2022/05/30 12:01:08;;;;;;;4.97;4.68;;;;;;;;;;4998715;28;20092;-63
2022/05/30 12:03:37;;;;;;;5.72;5.25;;;;;;;;;;5009352;28;20061;-63
2022/05/30 12:06:12;;;;;;;6.10;5.60;;;;;;;;;;5003245;28;20038;-63
2022/05/30 12:09:09;;;;;;;5.97;5.47;;;;;;;;;;5007885;28;20038;-63
2022/05/30 12:11:55;;;;;;;5.82;5.43;;;;;;;;;;5006780;28;20041;-63
2022/05/30 12:14:33;;;;;;;6.05;5.50;;;;;;;;;;5001806;28;20050;-63
2022/05/30 12:17:23;;;;;;;5.72;5.40;;;;;;;;;;5000012;28;20523;-63
2022/05/30 12:25:36;;;;;;;5.70;5.20;;;;;;;;;;5005154;28;20247;-63
2022/05/30 12:28:26;;;;;;;5.70;5.30;;;;;;;;;;5004597;28;20408;-63
2022/05/30 12:31:04;;;;;;;5.80;5.40;;;;;;;;;;5003367;28;20059;-63
2022/05/30 12:33:30;;;;;;;7.13;5.60;;;;;;;;;;4999162;28;20034;-63
2022/05/30 12:36:07;;;;;;;6.60;5.07;;;;;;;;;;5009459;28;20172;-63
2022/05/30 12:38:54;;;;;;;5.93;5.43;;;;;;;;;;5006199;28;20179;-63
2022/05/30 12:41:30;;;;;;;5.50;5.10;;;;;;;;;;5002856;28;20038;-63
2022/05/30 12:43:56;;;;;;;5.80;5.40;;;;;;;;;;5008383;28;20109;-63
2022/05/30 12:46:25;;;;;;;5.88;5.32;;;;;;;;;;5001041;28;20038;-63
2022/05/30 12:48:53;;;;;;;5.57;5.18;;;;;;;;;;4993258;28;20065;-63
2022/05/30 12:51:33;;;;;;;5.20;4.90;;;;;;;;;;4994691;28;20065;-63
2022/05/30 12:54:02;;;;;;;5.43;4.93;;;;;;;;;;5002081;28;20042;-63
2022/05/30 12:56:39;;;;;;;5.47;5.07;;;;;;;;;;4998854;28;20456;-63
2022/05/30 12:59:11;;;;;;;5.82;5.43;;;;;;;;;;5007990;28;20447;-63
2022/05/30 13:01:42;;;;;;;6.03;5.50;;;;;;;;;;5008231;28;20041;-63
2022/05/30 13:04:26;;;;;;;5.45;5.15;;;;;;;;;;5005158;28;20034;-64
2022/05/30 13:06:58;;;;;;;6.30;5.18;;;;;;;;;;4989169;28;20050;-63
2022/05/30 13:09:48;;;;;;;5.88;5.38;;;;;;;;;;5007834;28;20488;-63
2022/05/30 13:12:20;;;;;;;6.80;6.20;;;;;;;;;;5004352;28;20045;-63
2022/05/30 13:15:01;;;;;;;6.57;6.18;;;;;;;;;;5004847;28;20045;-63
2022/05/30 13:17:53;;;;;;;6.28;5.88;;;;;;;;;;4999616;28;20629;-63
2022/05/30 13:20:28;;;;;;;6.13;5.63;;;;;;;;;;5004048;28;20034;-63
2022/05/30 13:22:57;;;;;;;5.82;5.32;;;;;;;;;;5002726;28;20066;-63
2022/05/30 13:25:36;;;;;;;5.95;5.47;;;;;;;;;;5004304;28;20524;-63
2022/05/30 13:28:10;;;;;;;6.30;5.80;;;;;;;;;;5001476;28;20081;-62
2022/05/30 13:30:37;;;;;;;6.10;5.70;;;;;;;;;;5007162;28;20095;-63
2022/05/30 13:33:32;;;;;;;5.70;5.30;;;;;;;;;;5003639;28;20489;-63
2022/05/30 13:36:01;;;;;;;6.13;5.63;;;;;;;;;;5005112;28;20044;-64
2022/05/30 13:38:32;;;;;;;6.20;5.80;;;;;;;;;;5008734;28;20045;-64
2022/05/30 13:41:23;;;;;;;6.13;5.80;;;;;;;;;;4986482;28;20041;-63
2022/05/30 13:43:55;;;;;;;5.95;5.40;;;;;;;;;;5002937;28;20029;-63
2022/05/30 13:46:26;;;;;;;7.22;5.72;;;;;;;;;;5006476;28;20091;-64
2022/05/30 13:48:52;;;;;;;5.40;5.10;;;;;;;;;;5001010;28;20120;-64
2022/05/30 13:51:31;;;;;;;5.00;4.70;;;;;;;;;;5001951;28;20129;-64
2022/05/30 13:53:57;;;;;;;5.40;5.00;;;;;;;;;;4998694;28;20045;-63
2022/05/30 13:56:30;;;;;;;5.45;5.10;;;;;;;;;;4999314;28;20069;-63
2022/05/30 13:58:58;;;;;;;5.00;4.70;;;;;;;;;;5002339;28;20034;-63
2022/05/30 14:01:26;;;;;;;5.47;5.07;;;;;;;;;;5004882;28;20041;-64
2022/05/30 14:03:57;;;;;;;4.97;4.57;;;;;;;;;;4999590;28;20051;-64
2022/05/30 14:06:41;;;;;;;4.65;4.35;;;;;;;;;;4993141;28;20088;-64
2022/05/30 14:09:11;;;;;;;5.10;4.70;;;;;;;;;;5006143;28;20038;-64
2022/05/30 14:11:43;;;;;;;5.15;4.53;;;;;;;;;;5005589;28;20038;-64
2022/05/30 14:14:09;;;;;;;4.50;4.20;;;;;;;;;;5004558;28;20030;-64
2022/05/30 14:16:53;;;;;;;4.90;4.60;;;;;;;;;;5005172;28;20403;-64
2022/05/30 14:19:32;;;;;;;4.95;4.55;;;;;;;;;;5007435;28;20374;-64
2022/05/30 14:22:01;;;;;;;4.97;4.57;;;;;;;;;;5004714;28;20037;-64
2022/05/30 14:24:32;;;;;;;4.90;4.60;;;;;;;;;;4996121;28;20088;-64
2022/05/30 14:27:04;;;;;;;4.50;4.20;;;;;;;;;;4999189;28;20520;-63
2022/05/30 14:29:31;;;;;;;4.50;4.20;;;;;;;;;;5008006;28;20170;-64
2022/05/30 14:32:03;;;;;;;5.00;4.60;;;;;;;;;;5004742;28;20053;-64
2022/05/30 14:34:38;;;;;;;4.88;4.45;;;;;;;;;;5005699;28;20034;-64
2022/05/30 14:37:34;;;;;;;4.88;4.20;;;;;;;;;;5007474;28;20045;-64
2022/05/30 14:40:36;;;;;;;4.10;3.90;;;;;;;;;;5002069;28;20656;-63
2022/05/30 14:43:27;;;;;;;4.40;4.10;;;;;;;;;;5004675;28;20034;-63
2022/05/30 14:46:05;;;;;;;4.72;4.43;;;;;;;;;;5008510;28;20124;-62
2022/05/30 14:48:31;;;;;;;4.93;4.40;;;;;;;;;;5010136;28;20512;-63
2022/05/30 14:51:04;;;;;;;4.75;4.35;;;;;;;;;;5006528;28;20026;-62
2022/05/30 14:53:33;;;;;;;5.32;4.55;;;;;;;;;;5006785;28;20045;-63
2022/05/30 14:56:05;;;;;;;5.10;4.70;;;;;;;;;;5003490;28;20152;-63
2022/05/30 14:58:41;;;;;;;5.50;4.70;;;;;;;;;;5007480;28;20042;-62
2022/05/30 15:01:09;;;;;;;4.70;4.40;;;;;;;;;;5006856;28;20040;-61
2022/05/30 15:06:23;;;;;;;5.30;4.80;;;;;;;;;;5005991;28;20550;-62
2022/05/30 15:08:52;;;;;;;6.43;4.78;;;;;;;;;;5002120;28;20030;-63
2022/05/30 15:11:22;;;;;;;5.82;4.88;;;;;;;;;;5006768;28;20048;-63
2022/05/30 15:13:53;;;;;;;4.90;4.40;;;;;;;;;;5009428;28;20440;-63
2022/05/30 15:16:20;;;;;;;4.85;4.53;;;;;;;;;;5005198;28;20058;-62
2022/05/30 15:18:46;;;;;;;5.07;4.68;;;;;;;;;;5003510;28;20058;-63
2022/05/30 15:21:32;;;;;;;5.10;4.60;;;;;;;;;;5002628;28;20072;-63
2022/05/30 15:23:59;;;;;;;5.15;4.80;;;;;;;;;;5007708;28;20072;-63
2022/05/30 15:26:25;;;;;;;5.43;4.40;;;;;;;;;;5002137;28;20065;-63
2022/05/30 15:28:51;;;;;;;4.90;4.60;;;;;;;;;;5006135;28;20033;-63
2022/05/30 15:31:24;;;;;;;4.88;4.47;;;;;;;;;;5003978;28;20057;-63
2022/05/30 15:33:50;;;;;;;4.90;4.50;;;;;;;;;;5006800;28;20059;-63
2022/05/30 15:36:18;;;;;;;5.20;4.80;;;;;;;;;;5003329;28;20500;-63
2022/05/30 15:38:50;;;;;;;5.72;4.80;;;;;;;;;;5003848;28;20036;-63
2022/05/30 15:41:17;;;;;;;6.22;4.40;;;;;;;;;;5007094;28;20049;-63
2022/05/30 15:43:43;;;;;;;5.18;4.78;;;;;;;;;;5008263;28;20097;-63
2022/05/30 15:46:12;;;;;;;5.10;4.70;;;;;;;;;;5006113;28;20132;-62
2022/05/30 15:48:39;;;;;;;5.25;4.85;;;;;;;;;;5006172;28;20034;-63
2022/05/30 15:51:06;;;;;;;6.28;5.57;;;;;;;;;;5008218;28;20050;-63
2022/05/30 15:59:04;;;;;;;5.55;5.00;;;;;;;;;;5007991;28;20102;-63